createdAt,value
2019-03-06T00:00:27.247Z,8.30
2019-03-06T00:02:55.747Z,8.20
2019-03-06T00:05:24.310Z,8.00
2019-03-06T00:07:53.069Z,8.00
2019-03-06T00:10:24.595Z,7.90
2019-03-06T00:12:53.137Z,7.90
2019-03-06T00:15:21.653Z,7.80
2019-03-06T00:17:50.181Z,7.70
2019-03-06T00:20:19.005Z,7.70
2019-03-06T00:22:47.543Z,7.80
2019-03-06T00:25:16.146Z,7.90
2019-03-06T00:27:44.812Z,7.90
2019-03-06T00:30:15.509Z,7.90
2019-03-06T00:32:44.209Z,8.00
2019-03-06T00:35:30.260Z,8.00
2019-03-06T00:37:58.818Z,7.90
2019-03-06T00:40:31.513Z,7.80
2019-03-06T00:43:00.114Z,7.70
2019-03-06T00:45:28.716Z,7.70
2019-03-06T00:47:57.378Z,7.80
2019-03-06T00:50:25.976Z,7.70
2019-03-06T00:52:54.482Z,7.60
2019-03-06T00:55:23.120Z,7.70
2019-03-06T00:57:51.615Z,7.60
2019-03-06T01:00:25.225Z,7.40
2019-03-06T01:02:53.834Z,7.30
2019-03-06T01:05:22.350Z,7.20
2019-03-06T01:07:50.875Z,7.10
2019-03-06T01:10:19.371Z,7.10
2019-03-06T01:12:54.119Z,7.10
2019-03-06T01:15:22.624Z,7.10
2019-03-06T01:17:51.519Z,7.10
2019-03-06T01:20:20.034Z,7.10
2019-03-06T01:22:48.619Z,7.00
2019-03-06T01:25:21.079Z,7.00
2019-03-06T01:27:49.589Z,6.80
2019-03-06T01:30:23.471Z,6.70
2019-03-06T01:33:08.666Z,6.60
2019-03-06T01:35:38.821Z,6.60
2019-03-06T01:38:15.507Z,6.50
2019-03-06T01:40:54.839Z,6.60
2019-03-06T01:43:27.794Z,6.60
2019-03-06T01:45:56.556Z,6.50
2019-03-06T01:48:25.087Z,6.60
2019-03-06T01:50:56.417Z,6.50
2019-03-06T01:53:24.957Z,6.40
2019-03-06T01:55:53.681Z,6.40
2019-03-06T01:58:22.579Z,6.30
2019-03-06T02:00:51.203Z,6.50
2019-03-06T02:03:19.921Z,6.50
2019-03-06T02:05:48.432Z,6.40
2019-03-06T02:08:17.759Z,6.30
2019-03-06T02:10:46.800Z,6.40
2019-03-06T02:13:15.437Z,6.40
2019-03-06T02:15:43.947Z,6.30
2019-03-06T02:18:12.494Z,6.30
2019-03-06T02:20:41.015Z,6.30
2019-03-06T02:23:09.700Z,6.30
2019-03-06T02:25:38.427Z,6.40
2019-03-06T02:28:06.986Z,6.30
2019-03-06T02:30:35.576Z,6.20
2019-03-06T02:33:04.198Z,6.20
2019-03-06T02:35:32.809Z,6.20
2019-03-06T02:38:05.069Z,6.10
2019-03-06T02:40:33.622Z,6.20
2019-03-06T02:43:02.374Z,6.20
2019-03-06T02:45:30.970Z,6.10
2019-03-06T02:47:59.574Z,6.10
2019-03-06T02:50:28.143Z,6.20
2019-03-06T02:52:56.760Z,6.20
2019-03-06T02:55:25.414Z,6.30
2019-03-06T02:58:10.677Z,6.20
2019-03-06T03:00:40.812Z,6.10
2019-03-06T03:03:11.039Z,6.10
2019-03-06T03:05:59.549Z,6.00
2019-03-06T03:08:28.403Z,6.00
2019-03-06T03:10:57.129Z,5.90
2019-03-06T03:13:25.677Z,5.90
2019-03-06T03:15:54.206Z,6.00
2019-03-06T03:18:22.730Z,6.10
2019-03-06T03:20:51.424Z,6.10
2019-03-06T03:23:19.939Z,6.20
2019-03-06T03:25:48.614Z,6.10
2019-03-06T03:28:19.749Z,5.90
2019-03-06T03:30:47.441Z,5.90
2019-03-06T03:33:15.997Z,5.90
2019-03-06T03:35:44.953Z,5.90
2019-03-06T03:38:13.590Z,5.90
2019-03-06T03:40:42.237Z,6.10
2019-03-06T03:43:10.826Z,6.20
2019-03-06T03:45:39.377Z,6.10
2019-03-06T03:48:08.610Z,6.00
2019-03-06T03:50:37.108Z,6.00
2019-03-06T03:53:05.800Z,6.00
2019-03-06T03:55:34.512Z,6.00
2019-03-06T03:58:03.014Z,6.00
2019-03-06T04:00:31.692Z,6.00
2019-03-06T04:03:01.117Z,5.90
2019-03-06T04:05:29.750Z,5.90
2019-03-06T04:07:58.238Z,5.80
2019-03-06T04:10:28.579Z,5.80
2019-03-06T04:12:57.279Z,5.60
2019-03-06T04:15:25.971Z,5.60
2019-03-06T04:17:54.589Z,5.60
2019-03-06T04:20:23.204Z,5.70
2019-03-06T04:22:51.826Z,5.60
2019-03-06T04:25:20.442Z,5.40
2019-03-06T04:27:49.770Z,5.30
2019-03-06T04:30:19.256Z,5.50
2019-03-06T04:32:47.863Z,5.50
2019-03-06T04:35:16.467Z,5.50
2019-03-06T04:37:45.221Z,5.50
2019-03-06T04:40:14.761Z,5.40
2019-03-06T04:42:43.362Z,5.40
2019-03-06T04:45:16.816Z,5.40
2019-03-06T04:47:45.421Z,5.50
2019-03-06T04:50:14.975Z,5.50
2019-03-06T04:52:43.877Z,5.60
2019-03-06T04:55:13.710Z,5.60
2019-03-06T04:57:42.297Z,5.50
2019-03-06T05:00:24.140Z,5.50
2019-03-06T05:02:53.133Z,5.50
2019-03-06T05:05:21.738Z,5.50
2019-03-06T05:07:50.262Z,5.60
2019-03-06T05:10:18.804Z,5.50
2019-03-06T05:12:47.472Z,5.50
2019-03-06T05:15:17.123Z,5.50
2019-03-06T05:17:47.362Z,5.40
2019-03-06T05:20:17.410Z,5.40
2019-03-06T05:22:45.973Z,5.40
2019-03-06T05:25:14.560Z,5.40
2019-03-06T05:27:43.522Z,5.40
2019-03-06T05:30:16.236Z,5.50
2019-03-06T05:32:47.738Z,5.50
2019-03-06T05:35:28.738Z,5.50
2019-03-06T05:38:02.960Z,5.50
2019-03-06T05:40:31.199Z,5.50
2019-03-06T05:42:59.787Z,5.50
2019-03-06T05:45:28.391Z,5.40
2019-03-06T05:47:56.993Z,5.30
2019-03-06T05:50:25.677Z,5.20
2019-03-06T05:52:54.307Z,5.20
2019-03-06T05:55:24.473Z,5.30
2019-03-06T05:57:53.178Z,5.30
2019-03-06T06:00:23.435Z,5.50
2019-03-06T06:02:52.067Z,5.50
2019-03-06T06:05:20.803Z,5.30
2019-03-06T06:07:49.387Z,5.40
2019-03-06T06:10:17.982Z,5.60
2019-03-06T06:12:47.639Z,5.60
2019-03-06T06:15:16.530Z,5.50
2019-03-06T06:17:45.075Z,5.60
2019-03-06T06:20:15.055Z,5.70
2019-03-06T06:23:01.458Z,5.70
2019-03-06T06:25:31.656Z,5.70
2019-03-06T06:28:00.162Z,5.80
2019-03-06T06:30:30.430Z,5.90
2019-03-06T06:32:59.059Z,5.70
2019-03-06T06:35:27.713Z,5.70
2019-03-06T06:37:56.235Z,5.70
2019-03-06T06:40:24.909Z,5.70
2019-03-06T06:42:53.461Z,5.60
2019-03-06T06:45:22.140Z,5.70
2019-03-06T06:48:14.994Z,5.70
2019-03-06T06:50:46.816Z,5.80
2019-03-06T06:53:32.847Z,5.90
2019-03-06T06:56:13.818Z,6.00
2019-03-06T06:58:48.482Z,5.90
2019-03-06T07:01:25.030Z,6.00
2019-03-06T07:04:25.461Z,6.10
2019-03-06T07:07:04.887Z,6.10
2019-03-06T07:09:35.094Z,6.10
2019-03-06T07:12:10.930Z,6.30
2019-03-06T07:14:57.369Z,6.30
2019-03-06T07:17:32.778Z,6.40
2019-03-06T07:20:03.018Z,6.50
2019-03-06T07:22:39.359Z,6.30
2019-03-06T07:25:12.810Z,6.40
2019-03-06T07:27:48.684Z,6.60
2019-03-06T07:30:18.852Z,6.80
2019-03-06T07:32:49.307Z,6.70
2019-03-06T07:36:02.763Z,6.60
2019-03-06T07:38:31.418Z,6.50
2019-03-06T07:41:16.878Z,6.80
2019-03-06T07:43:47.113Z,7.00
2019-03-06T07:46:27.751Z,7.20
2019-03-06T07:49:09.753Z,7.20
2019-03-06T07:51:42.025Z,7.30
2019-03-06T07:54:29.873Z,7.50
2019-03-06T07:57:09.110Z,7.20
2019-03-06T07:59:37.729Z,7.10
2019-03-06T08:02:21.569Z,7.20
2019-03-06T08:04:54.990Z,7.30
2019-03-06T08:07:23.524Z,7.30
2019-03-06T08:09:53.006Z,7.50
2019-03-06T08:12:23.795Z,7.50
2019-03-06T08:15:07.782Z,7.60
2019-03-06T08:17:47.892Z,7.80
2019-03-06T08:20:24.061Z,7.90
2019-03-06T08:23:10.832Z,8.10
2019-03-06T08:25:44.343Z,8.10
2019-03-06T08:28:28.282Z,7.90
2019-03-06T08:31:16.256Z,7.90
2019-03-06T08:33:54.996Z,8.10
2019-03-06T08:36:27.426Z,8.00
2019-03-06T08:39:26.266Z,8.20
2019-03-06T08:42:07.089Z,8.20
2019-03-06T08:47:54.618Z,8.50
2019-03-06T08:53:38.226Z,8.40
2019-03-06T08:59:28.325Z,9.20
2019-03-06T09:02:16.499Z,8.90
2019-03-06T09:08:31.804Z,9.70
2019-03-06T09:11:18.099Z,9.70
2019-03-06T09:14:19.893Z,9.70
2019-03-06T09:17:12.137Z,9.80
2019-03-06T09:20:12.188Z,9.80
2019-03-06T09:22:45.112Z,10.00
2019-03-06T09:25:20.227Z,10.20
2019-03-06T09:27:50.389Z,10.40
2019-03-06T09:30:20.558Z,10.80
2019-03-06T09:32:53.692Z,10.90
2019-03-06T09:35:27.317Z,10.90
2019-03-06T09:38:11.241Z,10.90
2019-03-06T09:40:56.606Z,11.10
2019-03-06T09:43:44.779Z,11.20
2019-03-06T09:46:20.783Z,11.30
2019-03-06T09:48:52.167Z,11.40
2019-03-06T09:51:25.150Z,11.30
2019-03-06T09:54:01.778Z,11.60
2019-03-06T09:56:47.577Z,11.60
2019-03-06T09:59:20.532Z,11.60
2019-03-06T10:02:31.246Z,11.70
2019-03-06T10:04:42.342Z,12.30
2019-03-06T10:07:28.863Z,12.80
2019-03-06T10:09:59.544Z,12.70
2019-03-06T10:13:03.531Z,13.00
2019-03-06T10:15:49.096Z,13.40
2019-03-06T10:18:31.267Z,13.40
2019-03-06T10:21:08.147Z,13.30
2019-03-06T10:26:49.514Z,14.00
2019-03-06T10:32:42.127Z,13.90
2019-03-06T10:38:20.444Z,13.90
2019-03-06T10:44:08.182Z,14.00
2019-03-06T10:49:50.719Z,14.50
2019-03-06T10:52:24.931Z,14.50
2019-03-06T10:55:01.564Z,14.50
2019-03-06T10:57:36.114Z,14.60
2019-03-06T11:00:44.145Z,14.90
2019-03-06T11:03:27.252Z,15.00
2019-03-06T11:05:58.916Z,15.10
2019-03-06T11:08:27.584Z,14.90
2019-03-06T11:11:04.771Z,15.40
2019-03-06T11:19:08.161Z,16.40
2019-03-06T11:24:26.175Z,16.70
2019-03-06T11:26:58.987Z,16.40
2019-03-06T11:29:27.612Z,16.40
2019-03-06T11:32:06.582Z,16.50
2019-03-06T11:34:40.809Z,16.90
2019-03-06T11:37:21.745Z,17.00
2019-03-06T11:40:08.942Z,16.70
2019-03-06T11:42:37.534Z,16.80
2019-03-06T11:48:45.020Z,17.10
2019-03-06T11:51:24.059Z,17.40
2019-03-06T11:53:52.852Z,17.30
2019-03-06T11:56:27.490Z,17.50
2019-03-06T11:59:06.572Z,17.30
2019-03-06T12:01:36.360Z,17.80
2019-03-06T12:04:05.131Z,17.70
2019-03-06T12:06:52.399Z,17.60
2019-03-06T12:09:43.604Z,17.40
2019-03-06T12:12:12.179Z,17.40
2019-03-06T12:15:03.895Z,17.40
2019-03-06T12:17:23.355Z,17.60
2019-03-06T12:19:53.508Z,17.60
2019-03-06T12:25:01.262Z,18.30
2019-03-06T12:27:29.884Z,18.00
2019-03-06T12:30:12.572Z,17.90
2019-03-06T12:32:36.259Z,17.80
2019-03-06T12:35:21.127Z,17.50
2019-03-06T12:41:05.128Z,18.00
2019-03-06T12:46:48.825Z,18.70
2019-03-06T12:49:37.219Z,18.80
2019-03-06T12:52:06.041Z,18.30
2019-03-06T12:54:34.698Z,18.10
2019-03-06T12:57:09.087Z,18.10
2019-03-06T12:59:37.621Z,18.40
2019-03-06T13:02:12.726Z,18.10
2019-03-06T13:04:53.503Z,18.20
2019-03-06T13:07:31.234Z,17.90
2019-03-06T13:10:01.442Z,18.00
2019-03-06T13:12:38.194Z,18.30
2019-03-06T13:15:13.537Z,18.40
2019-03-06T13:17:52.832Z,18.90
2019-03-06T13:20:15.243Z,19.10
2019-03-06T13:22:44.608Z,18.80
2019-03-06T13:25:15.754Z,18.90
2019-03-06T13:27:44.297Z,19.00
2019-03-06T13:30:55.182Z,18.40
2019-03-06T13:33:48.061Z,18.80
2019-03-06T13:36:40.880Z,18.90
2019-03-06T13:39:17.056Z,19.20
2019-03-06T13:42:28.259Z,18.80
2019-03-06T13:45:02.809Z,17.70
2019-03-06T13:47:31.410Z,17.20
2019-03-06T13:50:00.305Z,17.60
2019-03-06T13:52:28.913Z,18.30
2019-03-06T13:54:57.667Z,18.90
2019-03-06T13:57:26.265Z,18.80
2019-03-06T14:00:00.888Z,19.50
2019-03-06T14:02:29.664Z,21.00
2019-03-06T14:04:59.013Z,21.70
2019-03-06T14:07:27.730Z,21.80
2019-03-06T14:09:57.306Z,20.60
2019-03-06T14:12:25.891Z,20.20
2019-03-06T14:14:54.539Z,19.80
2019-03-06T14:17:23.205Z,19.10
2019-03-06T14:19:51.728Z,19.20
2019-03-06T14:22:21.532Z,19.70
2019-03-06T14:24:50.163Z,20.10
2019-03-06T14:27:21.668Z,20.50
2019-03-06T14:29:51.142Z,19.60
2019-03-06T14:32:23.251Z,19.80
2019-03-06T14:34:51.774Z,20.20
2019-03-06T14:37:20.328Z,19.80
2019-03-06T14:39:48.953Z,20.20
2019-03-06T14:42:17.556Z,20.80
2019-03-06T14:44:51.017Z,20.90
2019-03-06T14:47:19.782Z,21.10
2019-03-06T14:49:48.359Z,20.40
2019-03-06T14:52:16.957Z,20.20
2019-03-06T14:54:48.423Z,20.20
2019-03-06T14:57:23.998Z,18.90
2019-03-06T14:59:52.816Z,18.10
2019-03-06T15:02:21.449Z,18.30
2019-03-06T15:04:50.051Z,18.50
2019-03-06T15:07:18.584Z,18.50
2019-03-06T15:09:47.116Z,18.30
2019-03-06T15:12:15.626Z,17.90
2019-03-06T15:14:46.581Z,18.00
2019-03-06T15:17:14.986Z,18.20
2019-03-06T15:19:43.545Z,18.10
2019-03-06T15:22:12.076Z,18.20
2019-03-06T15:24:41.658Z,18.30
2019-03-06T15:27:13.127Z,18.10
2019-03-06T15:29:41.739Z,18.00
2019-03-06T15:32:10.289Z,17.90
2019-03-06T15:34:38.776Z,17.70
2019-03-06T15:37:07.474Z,17.60
2019-03-06T15:39:44.446Z,17.40
2019-03-06T15:42:08.244Z,17.40
2019-03-06T15:44:40.392Z,17.10
2019-03-06T15:47:08.346Z,17.00
2019-03-06T15:49:38.571Z,16.80
2019-03-06T15:52:09.821Z,16.70
2019-03-06T15:54:41.595Z,16.50
2019-03-06T15:57:10.331Z,16.50
2019-03-06T15:59:38.931Z,16.30
2019-03-06T16:02:14.291Z,16.20
2019-03-06T16:04:42.397Z,16.30
2019-03-06T16:07:11.061Z,16.30
2019-03-06T16:09:43.238Z,16.20
2019-03-06T16:12:17.222Z,16.00
2019-03-06T16:14:48.850Z,16.10
2019-03-06T16:17:17.422Z,16.00
2019-03-06T16:19:45.961Z,15.80
2019-03-06T16:22:14.779Z,15.90
2019-03-06T16:24:43.320Z,15.80
2019-03-06T16:27:11.910Z,15.70
2019-03-06T16:29:40.423Z,15.70
2019-03-06T16:32:08.949Z,15.70
2019-03-06T16:34:37.551Z,15.60
2019-03-06T16:37:07.607Z,15.60
2019-03-06T16:39:43.379Z,15.40
2019-03-06T16:42:11.920Z,15.40
2019-03-06T16:44:40.661Z,15.30
2019-03-06T16:47:09.170Z,15.30
2019-03-06T16:49:41.021Z,15.30
2019-03-06T16:52:09.591Z,15.30
2019-03-06T16:54:38.746Z,15.20
2019-03-06T16:57:08.485Z,15.20
2019-03-06T16:59:37.030Z,15.20
2019-03-06T17:02:05.786Z,15.10
2019-03-06T17:04:34.421Z,15.10
2019-03-06T17:07:02.948Z,15.00
2019-03-06T17:09:31.534Z,15.00
2019-03-06T17:12:00.055Z,14.90
2019-03-06T17:14:28.588Z,14.80
2019-03-06T17:16:57.203Z,14.70
2019-03-06T17:19:25.833Z,14.70
2019-03-06T17:21:56.473Z,14.60
2019-03-06T17:24:25.124Z,14.50
2019-03-06T17:26:53.747Z,14.40
2019-03-06T17:29:22.987Z,14.40
2019-03-06T17:31:51.643Z,14.40
2019-03-06T17:34:20.279Z,14.50
2019-03-06T17:36:49.081Z,14.40
2019-03-06T17:39:17.602Z,14.40
2019-03-06T17:41:46.227Z,14.50
2019-03-06T17:44:14.765Z,14.40
2019-03-06T17:46:44.517Z,14.40
2019-03-06T17:49:13.219Z,14.40
2019-03-06T17:51:41.858Z,14.40
2019-03-06T17:54:11.920Z,14.50
2019-03-06T17:56:41.908Z,14.40
2019-03-06T17:59:10.700Z,14.50
2019-03-06T18:01:39.397Z,14.40
2019-03-06T18:04:11.714Z,14.40
2019-03-06T18:06:40.671Z,14.40
2019-03-06T18:09:09.290Z,14.40
2019-03-06T18:11:37.853Z,14.40
2019-03-06T18:14:09.962Z,14.30
2019-03-06T18:16:38.681Z,14.30
2019-03-06T18:19:07.213Z,14.30
2019-03-06T18:21:36.126Z,14.30
2019-03-06T18:24:04.711Z,14.30
2019-03-06T18:26:33.368Z,14.30
2019-03-06T18:29:03.986Z,14.30
2019-03-06T18:31:32.852Z,14.30
2019-03-06T18:34:02.924Z,14.20
2019-03-06T18:36:31.483Z,14.10
2019-03-06T18:39:00.009Z,14.00
2019-03-06T18:41:28.545Z,14.00
2019-03-06T18:43:57.401Z,14.00
2019-03-06T18:46:26.392Z,13.90
2019-03-06T18:48:54.907Z,13.90
2019-03-06T18:51:23.428Z,13.90
2019-03-06T18:53:52.188Z,13.80
2019-03-06T18:56:22.359Z,13.80
2019-03-06T18:58:52.885Z,13.70
2019-03-06T19:01:22.222Z,13.80
2019-03-06T19:03:52.498Z,13.80
2019-03-06T19:06:22.096Z,13.80
2019-03-06T19:11:40.810Z,13.70
2019-03-06T19:17:04.317Z,13.70
2019-03-06T19:19:32.940Z,13.50
2019-03-06T19:22:01.912Z,13.40
2019-03-06T19:24:30.502Z,13.30
2019-03-06T19:26:59.231Z,13.30
2019-03-06T19:29:27.737Z,13.30
2019-03-06T19:31:56.348Z,13.40
2019-03-06T19:34:24.948Z,13.30
2019-03-06T19:36:54.727Z,13.30
2019-03-06T19:39:23.315Z,13.40
2019-03-06T19:41:53.549Z,13.40
2019-03-06T19:44:22.112Z,13.40
2019-03-06T19:46:52.319Z,13.40
2019-03-06T19:52:10.939Z,13.40
2019-03-06T19:55:15.293Z,13.20
2019-03-06T19:58:00.732Z,13.20
2019-03-06T20:00:32.681Z,13.00
2019-03-06T20:03:02.893Z,13.00
2019-03-06T20:05:36.910Z,13.00
2019-03-06T20:08:08.359Z,12.90
2019-03-06T20:10:37.122Z,12.90
2019-03-06T20:13:05.791Z,12.80
2019-03-06T20:15:34.536Z,12.90
2019-03-06T20:18:05.611Z,12.90
2019-03-06T20:20:34.329Z,12.70
2019-03-06T20:23:03.072Z,12.70
2019-03-06T20:25:31.837Z,12.80
2019-03-06T20:28:00.516Z,12.70
2019-03-06T20:30:29.252Z,12.70
2019-03-06T20:32:57.992Z,12.80
2019-03-06T20:35:27.040Z,12.80
2019-03-06T20:37:56.199Z,12.80
2019-03-06T20:40:24.916Z,12.80
2019-03-06T20:42:53.671Z,12.80
2019-03-06T20:45:22.440Z,12.80
2019-03-06T20:47:51.155Z,12.70
2019-03-06T20:50:24.611Z,12.70
2019-03-06T20:52:53.602Z,12.70
2019-03-06T20:55:22.358Z,12.80
2019-03-06T20:57:51.148Z,12.80
2019-03-06T21:00:22.821Z,12.80
2019-03-06T21:02:51.544Z,12.90
2019-03-06T21:05:21.844Z,12.80
2019-03-06T21:07:50.502Z,12.80
2019-03-06T21:10:19.939Z,12.80
2019-03-06T21:12:48.692Z,12.70
2019-03-06T21:15:23.903Z,12.70
2019-03-06T21:17:52.616Z,12.60
2019-03-06T21:20:22.471Z,12.80
2019-03-06T21:22:53.297Z,12.70
2019-03-06T21:25:23.429Z,12.70
2019-03-06T21:28:00.032Z,12.60
2019-03-06T21:30:36.375Z,12.70
2019-03-06T21:33:05.271Z,12.50
2019-03-06T21:35:34.248Z,12.50
2019-03-06T21:38:02.952Z,12.60
2019-03-06T21:40:32.130Z,12.50
2019-03-06T21:43:00.877Z,12.50
2019-03-06T21:45:30.846Z,12.40
2019-03-06T21:47:59.597Z,12.40
2019-03-06T21:50:28.314Z,12.40
2019-03-06T21:52:57.074Z,12.50
2019-03-06T21:55:25.679Z,12.50
2019-03-06T21:57:55.069Z,12.50
2019-03-06T22:00:29.846Z,12.60
2019-03-06T22:03:03.441Z,12.70
2019-03-06T22:05:32.215Z,12.70
2019-03-06T22:08:03.694Z,12.70
2019-03-06T22:10:32.204Z,12.70
2019-03-06T22:13:00.728Z,12.60
2019-03-06T22:15:29.275Z,12.60
2019-03-06T22:17:57.779Z,12.60
2019-03-06T22:20:26.380Z,12.60
2019-03-06T22:22:54.987Z,12.60
2019-03-06T22:25:23.599Z,12.60
2019-03-06T22:27:52.117Z,12.60
2019-03-06T22:30:22.881Z,12.60
2019-03-06T22:32:53.023Z,12.60
2019-03-06T22:35:21.566Z,12.50
2019-03-06T22:37:50.162Z,12.60
2019-03-06T22:40:20.740Z,12.60
2019-03-06T22:42:49.384Z,12.60
2019-03-06T22:45:21.417Z,12.70
2019-03-06T22:47:49.984Z,12.70
2019-03-06T22:50:20.832Z,12.60
2019-03-06T22:52:49.728Z,12.60
2019-03-06T22:55:19.304Z,12.50
2019-03-06T22:57:47.812Z,12.40
2019-03-06T23:00:19.606Z,12.40
2019-03-06T23:02:48.206Z,12.40
2019-03-06T23:05:16.845Z,12.40
2019-03-06T23:07:45.408Z,12.40
2019-03-06T23:10:13.983Z,12.40
2019-03-06T23:12:42.467Z,12.40
2019-03-06T23:15:11.106Z,12.40
2019-03-06T23:17:39.682Z,12.40
2019-03-06T23:20:09.035Z,12.30
2019-03-06T23:22:37.731Z,12.40
2019-03-06T23:25:07.693Z,12.40
2019-03-06T23:27:36.293Z,12.50
2019-03-06T23:30:10.265Z,12.60
2019-03-06T23:32:38.845Z,12.40
2019-03-06T23:35:07.910Z,12.40
2019-03-06T23:37:36.427Z,12.50
2019-03-06T23:40:07.609Z,12.50
2019-03-06T23:42:36.884Z,12.60
2019-03-06T23:45:07.352Z,12.60
2019-03-06T23:47:35.897Z,12.60
2019-03-06T23:50:06.390Z,12.50
2019-03-06T23:52:39.436Z,12.50
2019-03-06T23:55:08.070Z,12.50
2019-03-06T23:57:36.603Z,12.50
